• Join FlightAware (Why Join?)
  • Login
  • US Flag 
04:03AM EDT


 

Airport Tracker/Info


-or-


 

Live Flight TrackerFlight Track Log ✈ SWA303 ✈ 15-Jul-2013 ✈ KSJC - KONT

Flight Track Log - Related Links

Times and Time Zones

All times are in EDT time to prevent confusion due to time zone crossing. See the SWA303 flight status page for this flight to view local times or setup timezone preferences in your user account.

Time Position Orientation Groundspeed Altitude Reporting Facility
EDT Latitude Longitude Course Direction KTS MPH feet Rate Location/Type
09:40PM 37.3833 -121.9500 141° Southeast 164 189 1,700  Level Northern Cal TRACON
09:41PM 37.4500 -121.9667 349° North 248 285 4,900 1,620 Climbing Northern Cal TRACON
09:42PM 37.4333 -121.9000 107° East 239 275 5,000 1,020 Climbing Northern Cal TRACON
09:43PM 37.3833 -121.8500 142° Southeast 238 274 7,000 2,760 Climbing Northern Cal TRACON
09:44PM 37.3333 -121.7833 133° Southeast 287 330 10,600 3,360 Climbing Northern Cal TRACON
09:45PM 37.2667 -121.7167 141° Southeast 336 387 13,800 3,480 Climbing Northern Cal TRACON
09:46PM 36.9638 -121.3760 141° Southeast  Level Estimated
09:46PM 37.1811 -121.6192 138° Southeast 343 395 18,200  Level Oakland Center
09:47PM 37.1056 -121.5328 138° Southeast 363 418 19,400 1,620 Climbing Oakland Center
09:48PM 37.0458 -121.4175 123° Southeast 379 436 21,500 2,400 Climbing Oakland Center
09:49PM 36.9822 -121.3067 126° Southeast 390 449 24,400 2,640 Climbing Oakland Center
09:50PM 36.9081 -121.1986 131° Southeast 408 470 26,900 2,340 Climbing Oakland Center
09:51PM 36.8356 -121.0939 131° Southeast 417 480 29,200 2,340 Climbing Oakland Center
09:52PM 36.7428 -120.9622 131° Southeast 433 498 31,800 2,460 Climbing Oakland Center
09:54PM 36.6636 -120.8483 131° Southeast 435 501 34,300 2,220 Climbing Oakland Center
09:55PM 36.5869 -120.7381 131° Southeast 426 490 36,400 1,920 Climbing Oakland Center
09:56PM 36.5069 -120.6258 132° Southeast 430 495 38,300 1,800 Climbing Oakland Center
09:57PM 36.4303 -120.5139 130° Southeast 425 489 40,100 1,320 Climbing Oakland Center
09:58PM 36.3525 -120.4078 132° Southeast 418 481 41,000 420 Climbing Oakland Center
09:59PM 36.2747 -120.2983 131° Southeast 420 483 41,000  Level Oakland Center
10:00PM 36.1967 -120.1858 131° Southeast 427 491 41,000  Level Oakland Center
10:01PM 36.1203 -120.0797 132° Southeast 415 478 41,000  Level Oakland Center
10:02PM 36.0422 -119.9722 132° Southeast 417 480 41,000  Level Oakland Center
10:03PM 35.9642 -119.8628 131° Southeast 421 484 41,000  Level Oakland Center
10:04PM 35.8878 -119.7583 132° Southeast 410 472 41,000  Level Oakland Center
10:05PM 35.8119 -119.6522 131° Southeast 409 471 41,000  Level Oakland Center
10:06PM 35.7344 -119.5456 132° Southeast 414 476 41,000 -240 Level Oakland Center
10:07PM 35.6408 -119.4183 132° Southeast 416 479 40,600 -720 Descending Oakland Center
10:08PM 35.5636 -119.3133 132° Southeast 416 479 39,600 -960 Descending Oakland Center
10:09PM 35.4864 -119.2075 132° Southeast 414 476 38,700 -900 Descending Oakland Center
10:10PM 35.4078 -119.1017 132° Southeast 417 480 37,800 -960 Descending Oakland Center
10:11PM 35.3314 -118.9950 131° Southeast 420 483 36,800 -960 Descending Los Angeles Center
10:12PM 35.2517 -118.8867 132° Southeast 424 488 35,900 -900 Descending Los Angeles Center
10:13PM 35.1700 -118.7778 133° Southeast 429 494 34,900 -1,200 Descending Los Angeles Center
10:14PM 35.0564 -118.6275 133° Southeast 431 496 33,200 -1,440 Descending Los Angeles Center
10:15PM 34.9758 -118.5217 133° Southeast 427 491 32,000 -2,160 Descending Los Angeles Center
10:16PM 34.8942 -118.4108 132° Southeast 434 499 28,800 -2,880 Descending Los Angeles Center
10:17PM 34.8142 -118.3058 133° Southeast 430 495 26,100 -2,160 Descending Los Angeles Center
10:18PM 34.7386 -118.2067 133° Southeast 413 475 24,400 -1,380 Descending Los Angeles Center
10:19PM 34.6661 -118.1108 133° Southeast 394 453 23,300 -900 Descending Los Angeles Center
10:21PM 34.6036 -118.0044 125° Southeast 392 451 22,400 -1,620 Descending Los Angeles Center
10:22PM 34.5317 -117.8456 119° Southeast 386 444 19,700 -2,460 Descending Los Angeles Center
10:23PM 34.4808 -117.7375 120° Southeast 373 429 17,400 -2,220 Descending Los Angeles Center
10:24PM 34.4339 -117.6342 119° Southeast 356 410 15,200 -1,680 Descending Los Angeles Center
10:25PM 34.3872 -117.5347 120° Southeast 342 394 14,000 -1,080 Descending Los Angeles Center
10:26PM 34.3414 -117.4331 119° Southeast 307 353 13,000 -1,080 Descending Los Angeles Center
10:27PM 34.3083 -117.3711 123° Southeast 284 327 11,900 -2,100 Descending Los Angeles Center
10:28PM 34.2183 -117.3314 160° South 294 338 8,700 -2,220 Descending Los Angeles Center
10:29PM 34.1436 -117.3192 172° South 273 314 7,400 -1,440 Descending Los Angeles Center
10:29PM 34.1000 -117.3167 177° South 230 265 6,300 -1,920 Descending Southern California TRACON
10:30PM 34.0500 -117.3667 220° Southwest 228 262 4,200 -1,500 Descending Southern California TRACON
10:32PM 34.0500 -117.4333 270° West 180 207 3,200 -900 Descending Southern California TRACON
10:32PM 34.0500 -117.4833 270° West 163 188 2,400 -840 Descending Southern California TRACON
10:33PM 34.0500 -117.5333 270° West 127 146 1,700 -660 Descending Southern California TRACON
10:34PM 34.0500 -117.5667 270° West 123 142 1,100 -600 Descending Southern California TRACON
10:37PM 34.0500 -117.6000 270° West  Level FlightAware Approximate
10:44PM 34.0560 -117.6012 270° West  Level Estimated